Terminal Aerodrome Forecast
Issued by NWS

Current Version | Previous Version | Text Only | Print | Product List | Glossary On
Versions: 1 2 3 4 5 6 7 8 9 10 11 12
000
FTUS44 KEPZ 251700
TAFDMN
TAF
KDMN 251720Z 2518/2618 30006KT P6SM SKC
     FM252100 23009KT P6SM FEW250
     FM260300 28005KT P6SM FEW250
     FM261500 03005KT P6SM FEW250=

USA.gov is the U.S. government's official web portal to all federal, state and local government web resources and services.